Time;durP1;ratioP1;P1;durP2;ratioP2;P2;SDS_P1;SDS_P2;PMS_P1;PMS_P2;Temp;Humidity;BMP_temperature;BMP_pressure;BME280_temperature;BME280_humidity;BME280_pressure;Samples;Min_cycle;Max_cycle;Signal;HPM_P1;HPM_P2
2023/12/05 00:02:21;;;;;;;13.18;12.48;;;;;;;;;;5079767;28;20032;-62
2023/12/05 00:04:47;;;;;;;12.77;12.18;;;;;;;;;;5077581;28;20012;-63
2023/12/05 00:07:12;;;;;;;13.73;13.02;;;;;;;;;;5073689;28;20381;-63
2023/12/05 00:09:38;;;;;;;13.20;12.50;;;;;;;;;;5073804;28;20028;-62
2023/12/05 00:12:03;;;;;;;13.65;12.95;;;;;;;;;;5067372;28;20021;-62
2023/12/05 00:14:28;;;;;;;13.20;12.55;;;;;;;;;;5071595;28;20518;-62
2023/12/05 00:16:55;;;;;;;13.07;12.48;;;;;;;;;;5066592;28;20529;-62
2023/12/05 00:19:21;;;;;;;13.60;12.90;;;;;;;;;;5072250;28;20060;-62
2023/12/05 00:21:46;;;;;;;13.57;12.88;;;;;;;;;;5076549;28;20083;-62
2023/12/05 00:24:11;;;;;;;13.55;12.85;;;;;;;;;;5073000;28;20047;-61
2023/12/05 00:26:37;;;;;;;13.13;12.52;;;;;;;;;;5071046;28;20411;-62
2023/12/05 00:29:02;;;;;;;13.07;12.48;;;;;;;;;;5073573;28;20027;-63
2023/12/05 00:31:27;;;;;;;14.48;13.68;;;;;;;;;;5074627;28;20020;-63
2023/12/05 00:33:53;;;;;;;13.60;12.90;;;;;;;;;;5072643;28;20098;-62
2023/12/05 00:36:18;;;;;;;13.68;12.98;;;;;;;;;;5073233;28;20107;-62
2023/12/05 00:38:44;;;;;;;13.20;12.60;;;;;;;;;;5072622;28;20020;-62
2023/12/05 00:41:09;;;;;;;13.45;12.75;;;;;;;;;;5078994;28;20024;-61
2023/12/05 00:43:35;;;;;;;13.00;12.40;;;;;;;;;;5082222;28;20483;-61
2023/12/05 00:46:01;;;;;;;12.80;12.20;;;;;;;;;;5068781;28;20476;-61
2023/12/05 00:48:26;;;;;;;12.90;12.30;;;;;;;;;;5072898;28;20036;-63
2023/12/05 00:50:51;;;;;;;12.98;12.38;;;;;;;;;;5075563;28;20031;-62
2023/12/05 00:53:17;;;;;;;12.90;12.30;;;;;;;;;;5079849;28;20051;-63
2023/12/05 00:55:42;;;;;;;12.88;12.27;;;;;;;;;;5074995;28;20143;-62
2023/12/05 00:58:07;;;;;;;12.55;11.95;;;;;;;;;;5076136;28;20017;-63
2023/12/05 01:00:33;;;;;;;14.80;14.00;;;;;;;;;;5079046;28;20476;-62
2023/12/05 01:02:58;;;;;;;13.43;12.73;;;;;;;;;;5073393;28;20081;-63
2023/12/05 01:05:23;;;;;;;13.98;13.27;;;;;;;;;;5073657;28;20028;-63
2023/12/05 01:07:49;;;;;;;13.65;12.95;;;;;;;;;;5077551;28;20471;-63
2023/12/05 01:10:14;;;;;;;13.60;12.90;;;;;;;;;;5075364;28;20077;-63
2023/12/05 01:12:39;;;;;;;12.88;12.27;;;;;;;;;;5072426;28;20017;-62
2023/12/05 01:15:05;;;;;;;13.00;12.40;;;;;;;;;;5070355;28;20052;-62
2023/12/05 01:17:30;;;;;;;13.02;12.43;;;;;;;;;;5071205;28;20078;-62
2023/12/05 01:19:56;;;;;;;12.68;12.07;;;;;;;;;;5071363;28;20036;-61
2023/12/05 01:22:21;;;;;;;12.77;12.18;;;;;;;;;;5073472;28;20629;-62
2023/12/05 01:24:56;;;;;;;12.93;12.30;;;;;;;;;;5075206;28;20036;-61
2023/12/05 01:27:22;;;;;;;12.85;12.25;;;;;;;;;;5078917;28;20035;-63
2023/12/05 01:29:47;;;;;;;13.13;12.48;;;;;;;;;;5077061;28;20029;-62
2023/12/05 01:32:13;;;;;;;12.70;12.10;;;;;;;;;;5073750;28;20028;-62
2023/12/05 01:34:39;;;;;;;12.98;12.38;;;;;;;;;;5078097;28;20050;-62
2023/12/05 01:37:04;;;;;;;13.07;12.40;;;;;;;;;;5073487;28;20024;-62
2023/12/05 01:39:29;;;;;;;13.25;12.57;;;;;;;;;;5074566;28;20048;-61
2023/12/05 01:41:55;;;;;;;12.80;12.20;;;;;;;;;;5073517;28;20034;-62
2023/12/05 01:44:20;;;;;;;13.20;12.60;;;;;;;;;;5075256;28;20106;-62
2023/12/05 01:46:46;;;;;;;12.82;12.23;;;;;;;;;;5073643;28;20031;-62
2023/12/05 01:49:11;;;;;;;12.68;12.07;;;;;;;;;;5072810;28;20032;-61
2023/12/05 01:51:37;;;;;;;12.63;12.02;;;;;;;;;;5077090;28;20073;-63
2023/12/05 01:54:03;;;;;;;12.75;12.15;;;;;;;;;;5075198;28;20016;-61
2023/12/05 01:56:28;;;;;;;13.00;12.35;;;;;;;;;;5073412;28;20483;-62
2023/12/05 01:58:54;;;;;;;13.30;12.60;;;;;;;;;;5073456;28;20028;-61
2023/12/05 02:01:20;;;;;;;13.63;12.93;;;;;;;;;;5075321;28;20623;-62
2023/12/05 02:03:46;;;;;;;13.43;12.73;;;;;;;;;;5076896;28;20118;-62
2023/12/05 02:06:11;;;;;;;13.38;12.68;;;;;;;;;;5075903;28;20032;-63
2023/12/05 02:08:38;;;;;;;14.50;13.70;;;;;;;;;;5070056;28;20383;-61
2023/12/05 02:11:03;;;;;;;12.60;12.00;;;;;;;;;;5069843;28;20024;-62
2023/12/05 02:13:28;;;;;;;12.70;12.10;;;;;;;;;;5074028;28;20449;-62
2023/12/05 02:15:59;;;;;;;12.60;12.00;;;;;;;;;;5066939;28;20040;-61
2023/12/05 02:18:29;;;;;;;12.60;12.00;;;;;;;;;;5072528;28;20017;-62
2023/12/05 02:20:55;;;;;;;12.95;12.35;;;;;;;;;;5076337;28;20031;-63
2023/12/05 02:23:35;;;;;;;12.60;12.00;;;;;;;;;;5073233;28;20025;-61
2023/12/05 02:26:09;;;;;;;13.55;12.85;;;;;;;;;;5072468;28;20020;-62
2023/12/05 02:28:34;;;;;;;13.00;12.30;;;;;;;;;;5071169;28;20032;-63
2023/12/05 02:31:00;;;;;;;12.40;11.80;;;;;;;;;;5072136;28;20029;-62
2023/12/05 02:33:25;;;;;;;12.55;11.95;;;;;;;;;;5074331;28;20162;-63
2023/12/05 02:36:03;;;;;;;12.70;12.10;;;;;;;;;;5071938;28;20029;-63
2023/12/05 02:38:39;;;;;;;13.07;12.48;;;;;;;;;;5071352;28;20475;-62
2023/12/05 02:41:12;;;;;;;13.07;12.48;;;;;;;;;;5070197;28;20390;-61
2023/12/05 02:43:46;;;;;;;13.45;12.75;;;;;;;;;;5069964;28;20116;-62
2023/12/05 02:46:13;;;;;;;13.52;12.82;;;;;;;;;;5074037;28;20389;-62
2023/12/05 02:48:39;;;;;;;13.45;12.75;;;;;;;;;;5073794;28;20024;-62
2023/12/05 02:51:04;;;;;;;12.77;12.18;;;;;;;;;;5073781;28;20031;-62
2023/12/05 02:53:30;;;;;;;13.32;12.63;;;;;;;;;;5071663;28;20491;-62
2023/12/05 02:55:55;;;;;;;13.18;12.57;;;;;;;;;;5072736;28;20035;-61
2023/12/05 02:58:20;;;;;;;12.98;12.38;;;;;;;;;;5070997;28;20507;-61
2023/12/05 03:00:46;;;;;;;12.73;12.13;;;;;;;;;;5077276;28;20073;-62
2023/12/05 03:03:11;;;;;;;13.25;12.57;;;;;;;;;;5072908;28;20491;-62
2023/12/05 03:05:37;;;;;;;12.73;12.13;;;;;;;;;;5071680;28;20052;-63
2023/12/05 03:08:02;;;;;;;13.45;12.75;;;;;;;;;;5074820;28;20035;-62
2023/12/05 03:10:28;;;;;;;13.25;12.57;;;;;;;;;;5073849;28;20035;-63
2023/12/05 03:12:53;;;;;;;13.65;12.95;;;;;;;;;;5072370;28;20035;-62
2023/12/05 03:15:18;;;;;;;14.00;13.30;;;;;;;;;;5070670;28;20048;-62
2023/12/05 03:17:44;;;;;;;13.63;12.93;;;;;;;;;;5071393;28;20032;-63
2023/12/05 03:20:09;;;;;;;12.93;12.32;;;;;;;;;;5072548;28;20392;-62
2023/12/05 03:22:35;;;;;;;13.57;12.88;;;;;;;;;;5072251;28;20036;-63
2023/12/05 03:25:00;;;;;;;13.02;12.43;;;;;;;;;;5067552;28;20091;-63
2023/12/05 03:27:26;;;;;;;13.40;12.73;;;;;;;;;;5067984;28;20535;-61
2023/12/05 03:29:51;;;;;;;13.75;13.05;;;;;;;;;;5072019;28;20135;-62
2023/12/05 03:32:16;;;;;;;13.55;12.85;;;;;;;;;;5074927;28;20035;-62
2023/12/05 03:34:42;;;;;;;13.85;13.15;;;;;;;;;;5075525;28;20051;-63
2023/12/05 03:37:07;;;;;;;13.80;13.10;;;;;;;;;;5076972;28;20051;-61
2023/12/05 03:39:32;;;;;;;13.50;12.80;;;;;;;;;;5071028;28;20048;-64
2023/12/05 03:41:58;;;;;;;13.82;13.13;;;;;;;;;;5074827;28;20024;-63
2023/12/05 03:44:23;;;;;;;13.85;13.15;;;;;;;;;;5084319;28;20466;-63
2023/12/05 03:46:48;;;;;;;13.70;13.00;;;;;;;;;;5080922;28;20093;-62
2023/12/05 03:49:14;;;;;;;12.90;12.30;;;;;;;;;;5077208;28;20081;-63
2023/12/05 03:51:39;;;;;;;13.90;13.20;;;;;;;;;;5078664;28;20029;-62
2023/12/05 03:54:04;;;;;;;12.90;12.30;;;;;;;;;;5070763;28;20017;-63
2023/12/05 03:56:30;;;;;;;13.13;12.52;;;;;;;;;;5079046;28;20024;-61
2023/12/05 03:58:55;;;;;;;13.45;12.75;;;;;;;;;;5074866;28;20028;-62
2023/12/05 04:01:21;;;;;;;13.93;13.23;;;;;;;;;;5070796;28;20016;-63
2023/12/05 04:03:46;;;;;;;13.80;13.10;;;;;;;;;;5079148;28;20016;-64
2023/12/05 04:06:21;;;;;;;13.60;12.90;;;;;;;;;;5069890;28;20029;-62
2023/12/05 04:08:47;;;;;;;14.57;13.77;;;;;;;;;;5067250;28;20020;-62
2023/12/05 04:11:12;;;;;;;13.50;12.85;;;;;;;;;;5077216;28;20028;-63
2023/12/05 04:13:38;;;;;;;13.60;12.90;;;;;;;;;;5077669;28;20035;-61
2023/12/05 04:16:04;;;;;;;13.40;12.70;;;;;;;;;;5077987;28;20036;-62
2023/12/05 04:18:30;;;;;;;13.63;12.93;;;;;;;;;;5073931;28;20033;-63
2023/12/05 04:20:55;;;;;;;13.02;12.43;;;;;;;;;;5072048;28;20055;-64
2023/12/05 04:23:20;;;;;;;13.82;13.13;;;;;;;;;;5069081;28;20017;-62
2023/12/05 04:25:46;;;;;;;13.68;12.98;;;;;;;;;;5075419;28;20041;-62
2023/12/05 04:28:11;;;;;;;13.35;12.73;;;;;;;;;;5073978;28;20024;-62
2023/12/05 04:30:36;;;;;;;13.32;12.63;;;;;;;;;;5070885;28;20036;-62
2023/12/05 04:33:02;;;;;;;13.15;12.50;;;;;;;;;;5067372;28;20055;-62
2023/12/05 04:35:27;;;;;;;13.63;12.93;;;;;;;;;;5073907;28;20024;-64
2023/12/05 04:37:52;;;;;;;13.05;12.45;;;;;;;;;;5079434;28;20025;-62
2023/12/05 04:40:19;;;;;;;15.05;14.18;;;;;;;;;;5068063;28;20024;-61
2023/12/05 04:42:44;;;;;;;13.52;12.82;;;;;;;;;;5074174;28;20024;-62
2023/12/05 04:45:10;;;;;;;13.43;12.77;;;;;;;;;;5077700;28;20028;-64
2023/12/05 04:47:35;;;;;;;13.07;12.43;;;;;;;;;;5070793;28;20028;-64
2023/12/05 04:50:00;;;;;;;13.50;12.80;;;;;;;;;;5069567;28;20021;-63
2023/12/05 04:52:26;;;;;;;14.07;13.27;;;;;;;;;;5069797;28;20024;-63
2023/12/05 04:54:51;;;;;;;14.05;13.27;;;;;;;;;;5073029;28;20063;-62
2023/12/05 04:57:16;;;;;;;13.35;12.65;;;;;;;;;;5074088;28;20052;-63
2023/12/05 04:59:41;;;;;;;13.30;12.60;;;;;;;;;;5069037;28;20017;-63
2023/12/05 05:02:07;;;;;;;13.43;12.73;;;;;;;;;;5070889;28;20114;-63
2023/12/05 05:04:32;;;;;;;14.40;13.60;;;;;;;;;;5065642;28;20025;-63
2023/12/05 05:06:58;;;;;;;13.10;12.40;;;;;;;;;;5068131;28;20103;-64
2023/12/05 05:09:23;;;;;;;13.50;12.80;;;;;;;;;;5066335;28;20025;-63
2023/12/05 05:11:48;;;;;;;14.20;13.40;;;;;;;;;;5069490;28;20021;-61
2023/12/05 05:14:14;;;;;;;14.10;13.30;;;;;;;;;;5069536;28;20028;-62
2023/12/05 05:16:39;;;;;;;12.80;12.20;;;;;;;;;;5069232;28;20024;-61
2023/12/05 05:19:05;;;;;;;13.13;12.52;;;;;;;;;;5072687;28;20024;-62
2023/12/05 05:21:30;;;;;;;13.90;13.13;;;;;;;;;;5065371;28;20036;-63
2023/12/05 05:23:56;;;;;;;14.45;13.65;;;;;;;;;;5074494;28;20027;-63
2023/12/05 05:26:21;;;;;;;13.00;12.40;;;;;;;;;;5074416;28;20055;-62
2023/12/05 05:28:46;;;;;;;14.98;14.07;;;;;;;;;;5069188;28;20021;-61
2023/12/05 05:31:12;;;;;;;14.93;14.05;;;;;;;;;;5073477;28;20031;-62
2023/12/05 05:33:37;;;;;;;14.70;13.90;;;;;;;;;;5073894;28;20476;-62
2023/12/05 05:36:03;;;;;;;14.05;13.30;;;;;;;;;;5072891;28;20519;-62
2023/12/05 05:38:28;;;;;;;13.73;13.02;;;;;;;;;;5074648;28;20388;-63
2023/12/05 05:41:02;;;;;;;13.55;12.85;;;;;;;;;;5074518;28;20028;-62
2023/12/05 05:43:27;;;;;;;;;;;;;;;;;;5067478;28;20103;-62
2023/12/05 05:45:53;;;;;;;13.20;12.53;;;;;;;;;;5074174;28;20006;-63
2023/12/05 05:48:18;;;;;;;14.38;13.57;;;;;;;;;;5075588;28;20265;-62
2023/12/05 05:50:44;;;;;;;14.18;13.45;;;;;;;;;;5075125;28;20027;-63
2023/12/05 05:53:09;;;;;;;13.70;13.00;;;;;;;;;;5077143;28;20023;-62
2023/12/05 05:55:34;;;;;;;13.90;13.18;;;;;;;;;;5075309;28;20032;-63
2023/12/05 05:58:00;;;;;;;14.82;14.00;;;;;;;;;;5071591;28;20017;-63
2023/12/05 06:00:25;;;;;;;15.40;14.48;;;;;;;;;;5069720;28;20028;-62
2023/12/05 06:02:50;;;;;;;15.32;14.43;;;;;;;;;;5073153;28;20450;-63
2023/12/05 06:05:16;;;;;;;14.70;13.90;;;;;;;;;;5067506;28;20498;-64
2023/12/05 06:07:41;;;;;;;13.68;12.98;;;;;;;;;;5070899;28;20024;-63
2023/12/05 06:10:07;;;;;;;14.48;13.68;;;;;;;;;;5072806;28;20020;-63
2023/12/05 06:12:32;;;;;;;13.45;12.75;;;;;;;;;;5071717;28;20024;-63
2023/12/05 06:14:57;;;;;;;13.57;12.88;;;;;;;;;;5071534;28;20494;-64
2023/12/05 06:17:23;;;;;;;13.40;12.70;;;;;;;;;;5066310;28;20059;-63
2023/12/05 06:19:48;;;;;;;14.35;13.55;;;;;;;;;;5071434;28;20031;-62
2023/12/05 06:22:13;;;;;;;15.85;14.85;;;;;;;;;;5067764;28;20020;-62
2023/12/05 06:24:39;;;;;;;13.77;13.00;;;;;;;;;;5070599;28;20160;-62
2023/12/05 06:27:05;;;;;;;13.25;12.55;;;;;;;;;;5066132;28;20110;-62
2023/12/05 06:29:30;;;;;;;13.45;12.75;;;;;;;;;;5064335;28;20029;-62
2023/12/05 06:31:55;;;;;;;13.20;12.50;;;;;;;;;;5067779;28;20032;-62
2023/12/05 06:34:21;;;;;;;13.15;12.45;;;;;;;;;;5069162;28;20036;-65
2023/12/05 06:36:46;;;;;;;13.43;12.73;;;;;;;;;;5068601;28;20106;-62
2023/12/05 06:39:11;;;;;;;14.52;13.65;;;;;;;;;;5069922;28;20012;-63
2023/12/05 06:41:37;;;;;;;12.73;12.07;;;;;;;;;;5071751;28;20027;-64
2023/12/05 06:44:02;;;;;;;13.25;12.55;;;;;;;;;;5072413;28;20028;-62
2023/12/05 06:46:28;;;;;;;13.77;13.07;;;;;;;;;;5070248;28;20036;-63
2023/12/05 06:48:53;;;;;;;13.40;12.70;;;;;;;;;;5079563;28;20025;-63
2023/12/05 06:51:18;;;;;;;13.10;12.40;;;;;;;;;;5075756;28;20035;-63
2023/12/05 06:53:46;;;;;;;13.52;12.82;;;;;;;;;;5069064;28;20035;-65
2023/12/05 06:56:12;;;;;;;13.60;12.90;;;;;;;;;;5063881;28;20391;-62
2023/12/05 06:58:37;;;;;;;14.43;13.63;;;;;;;;;;5064984;28;20526;-62
2023/12/05 07:01:03;;;;;;;14.40;13.60;;;;;;;;;;5070971;28;20079;-66
2023/12/05 07:03:29;;;;;;;17.88;16.63;;;;;;;;;;5063320;28;20028;-68
2023/12/05 07:05:54;;;;;;;14.75;13.88;;;;;;;;;;5063327;28;20040;-64
2023/12/05 07:08:20;;;;;;;15.27;14.38;;;;;;;;;;5064931;28;20387;-66
2023/12/05 07:10:45;;;;;;;14.00;13.20;;;;;;;;;;5059007;28;20043;-68
2023/12/05 07:13:11;;;;;;;14.80;13.93;;;;;;;;;;5061139;28;20029;-66
2023/12/05 07:15:36;;;;;;;15.50;14.57;;;;;;;;;;5059150;28;20055;-68
2023/12/05 07:18:01;;;;;;;14.82;13.93;;;;;;;;;;5062300;28;20012;-69
2023/12/05 07:20:27;;;;;;;14.63;13.77;;;;;;;;;;5057433;28;20074;-68
2023/12/05 07:22:52;;;;;;;15.00;14.10;;;;;;;;;;5065225;28;20472;-66
2023/12/05 07:25:17;;;;;;;15.10;14.20;;;;;;;;;;5062610;28;20090;-68
2023/12/05 07:27:43;;;;;;;13.98;13.18;;;;;;;;;;5063096;28;20012;-67
2023/12/05 07:30:08;;;;;;;14.10;13.30;;;;;;;;;;5064134;28;20020;-66
2023/12/05 07:32:33;;;;;;;14.05;13.25;;;;;;;;;;5071784;28;20081;-70
2023/12/05 07:34:59;;;;;;;14.13;13.32;;;;;;;;;;5058300;28;20063;-69
2023/12/05 07:37:24;;;;;;;14.27;13.48;;;;;;;;;;5061301;28;20029;-72
2023/12/05 07:39:49;;;;;;;14.18;13.38;;;;;;;;;;5071338;28;20051;-71
2023/12/05 07:42:15;;;;;;;15.18;14.27;;;;;;;;;;5056710;28;20107;-67
2023/12/05 07:44:40;;;;;;;14.82;13.93;;;;;;;;;;5053913;28;20119;-67
2023/12/05 07:47:07;;;;;;;13.98;13.18;;;;;;;;;;5063325;28;20056;-66
2023/12/05 07:49:33;;;;;;;13.68;12.95;;;;;;;;;;5069733;28;20025;-66
2023/12/05 07:51:58;;;;;;;14.88;13.98;;;;;;;;;;5070058;28;20074;-70
2023/12/05 07:54:23;;;;;;;14.15;13.35;;;;;;;;;;5064425;28;20032;-66
2023/12/05 07:56:49;;;;;;;14.32;13.48;;;;;;;;;;5063162;28;20036;-66
2023/12/05 07:59:14;;;;;;;13.35;12.65;;;;;;;;;;5065582;28;20372;-67
2023/12/05 08:01:42;;;;;;;13.73;12.93;;;;;;;;;;5065272;28;20017;-69
2023/12/05 08:04:08;;;;;;;13.25;12.55;;;;;;;;;;5071446;28;20012;-69
2023/12/05 08:06:33;;;;;;;13.15;12.45;;;;;;;;;;5069286;28;20567;-67
2023/12/05 08:08:59;;;;;;;13.88;13.07;;;;;;;;;;5080579;28;20359;-71
2023/12/05 08:11:25;;;;;;;14.20;13.40;;;;;;;;;;5067722;28;20032;-67
2023/12/05 08:13:50;;;;;;;13.95;13.15;;;;;;;;;;5062549;28;20146;-67
2023/12/05 08:16:16;;;;;;;14.65;13.77;;;;;;;;;;5067853;28;20059;-67
2023/12/05 08:18:41;;;;;;;13.73;12.95;;;;;;;;;;5060729;28;20033;-67
2023/12/05 08:21:07;;;;;;;15.27;14.32;;;;;;;;;;5065240;28;20510;-68
2023/12/05 08:23:32;;;;;;;13.30;12.60;;;;;;;;;;5066057;28;20036;-70
2023/12/05 08:25:58;;;;;;;14.05;13.25;;;;;;;;;;5071079;28;20471;-68
2023/12/05 08:28:23;;;;;;;13.80;13.02;;;;;;;;;;5067890;28;20021;-70
2023/12/05 08:30:49;;;;;;;14.02;13.23;;;;;;;;;;5070424;28;20028;-70
2023/12/05 08:33:14;;;;;;;14.00;13.20;;;;;;;;;;5069323;28;20059;-68
2023/12/05 08:35:40;;;;;;;14.10;13.30;;;;;;;;;;5059919;28;20020;-68
2023/12/05 08:38:05;;;;;;;14.48;13.65;;;;;;;;;;5070029;28;20039;-66
2023/12/05 08:40:30;;;;;;;14.48;13.65;;;;;;;;;;5063259;28;20395;-66
2023/12/05 08:42:56;;;;;;;13.98;13.18;;;;;;;;;;5062570;28;20135;-66
2023/12/05 08:45:21;;;;;;;14.05;13.25;;;;;;;;;;5071047;28;20032;-68
2023/12/05 08:47:46;;;;;;;13.35;12.65;;;;;;;;;;5071330;28;20844;-66
2023/12/05 08:50:12;;;;;;;13.55;12.82;;;;;;;;;;5071843;28;20483;-68
2023/12/05 08:52:38;;;;;;;12.85;12.23;;;;;;;;;;5070664;28;20031;-67
2023/12/05 08:55:04;;;;;;;15.32;14.38;;;;;;;;;;5064062;28;20104;-68
2023/12/05 08:57:29;;;;;;;13.38;12.68;;;;;;;;;;5061371;28;20033;-68
2023/12/05 08:59:55;;;;;;;13.82;13.05;;;;;;;;;;5056871;28;20020;-69
2023/12/05 09:02:20;;;;;;;13.13;12.43;;;;;;;;;;5059966;28;20043;-67
2023/12/05 09:04:45;;;;;;;14.20;13.40;;;;;;;;;;5062247;28;20131;-70
2023/12/05 09:07:11;;;;;;;14.15;13.35;;;;;;;;;;5055834;28;20385;-69
2023/12/05 09:09:36;;;;;;;13.95;13.15;;;;;;;;;;5063257;28;20791;-69
2023/12/05 09:12:02;;;;;;;13.73;12.93;;;;;;;;;;5063238;28;20051;-68
2023/12/05 09:14:27;;;;;;;13.73;13.00;;;;;;;;;;5057796;28;20056;-67
2023/12/05 09:16:53;;;;;;;13.32;12.63;;;;;;;;;;5062103;28;20055;-69
2023/12/05 09:19:18;;;;;;;13.88;13.07;;;;;;;;;;5063801;28;20111;-69
2023/12/05 09:21:44;;;;;;;13.50;12.80;;;;;;;;;;5059463;28;20462;-70
2023/12/05 09:24:09;;;;;;;14.27;13.48;;;;;;;;;;5061999;28;20025;-66
2023/12/05 09:26:34;;;;;;;13.77;13.02;;;;;;;;;;5058942;28;20086;-68
2023/12/05 09:29:00;;;;;;;14.32;13.52;;;;;;;;;;5058312;28;20659;-68
2023/12/05 09:31:26;;;;;;;14.43;13.63;;;;;;;;;;5060910;28;20032;-66
2023/12/05 09:33:51;;;;;;;13.13;12.43;;;;;;;;;;5062565;28;20033;-71
2023/12/05 09:36:16;;;;;;;14.57;13.70;;;;;;;;;;5062745;28;20056;-68
2023/12/05 09:38:42;;;;;;;14.88;14.00;;;;;;;;;;5059816;28;20830;-67
2023/12/05 09:41:10;;;;;;;13.70;13.00;;;;;;;;;;5063834;28;20028;-66
2023/12/05 09:43:36;;;;;;;14.30;13.50;;;;;;;;;;5064796;28;20027;-68
2023/12/05 09:46:04;;;;;;;14.45;13.65;;;;;;;;;;5063188;28;20025;-69
2023/12/05 09:48:32;;;;;;;13.70;13.00;;;;;;;;;;5060980;28;20422;-69
2023/12/05 09:50:58;;;;;;;13.50;12.80;;;;;;;;;;5076012;28;20098;-68
2023/12/05 09:53:26;;;;;;;13.98;13.20;;;;;;;;;;5055006;28;20025;-68
2023/12/05 09:55:52;;;;;;;12.68;12.05;;;;;;;;;;5065852;28;20021;-69
2023/12/05 09:58:18;;;;;;;13.60;12.90;;;;;;;;;;5057049;28;20091;-67
2023/12/05 10:00:44;;;;;;;14.45;13.65;;;;;;;;;;5063164;28;20099;-68
2023/12/05 10:03:10;;;;;;;14.48;13.63;;;;;;;;;;5063682;28;20017;-65
2023/12/05 10:05:37;;;;;;;13.52;12.82;;;;;;;;;;5059235;28;20039;-68
2023/12/05 10:08:03;;;;;;;13.68;12.95;;;;;;;;;;5062089;28;20028;-68
2023/12/05 10:10:30;;;;;;;14.68;13.82;;;;;;;;;;5064541;28;20065;-68
2023/12/05 10:12:55;;;;;;;13.60;12.90;;;;;;;;;;5064910;28;20776;-67
2023/12/05 10:15:21;;;;;;;14.10;13.30;;;;;;;;;;5065217;28;20048;-67
2023/12/05 10:17:47;;;;;;;13.90;13.10;;;;;;;;;;5061677;28;20029;-67
2023/12/05 10:20:12;;;;;;;15.73;14.75;;;;;;;;;;5060502;28;20356;-67
2023/12/05 10:22:37;;;;;;;14.45;13.65;;;;;;;;;;5062959;28;20027;-68
2023/12/05 10:25:06;;;;;;;14.40;13.60;;;;;;;;;;5067183;28;20087;-69
2023/12/05 10:27:31;;;;;;;14.25;13.45;;;;;;;;;;5074062;28;20025;-67
2023/12/05 10:29:57;;;;;;;13.63;12.93;;;;;;;;;;5065715;28;20035;-66
2023/12/05 10:32:26;;;;;;;13.77;13.07;;;;;;;;;;5066974;28;20031;-68
2023/12/05 10:34:52;;;;;;;14.07;13.27;;;;;;;;;;5064652;28;20361;-67
2023/12/05 10:37:21;;;;;;;12.90;12.27;;;;;;;;;;5064196;28;20028;-68
2023/12/05 10:39:48;;;;;;;13.80;13.10;;;;;;;;;;5067071;28;20162;-68
2023/12/05 10:42:13;;;;;;;13.95;13.20;;;;;;;;;;5067865;28;20434;-66
2023/12/05 10:44:39;;;;;;;13.18;12.48;;;;;;;;;;5066466;28;20017;-66
2023/12/05 10:47:09;;;;;;;13.77;13.07;;;;;;;;;;5061835;28;20818;-66
2023/12/05 10:49:34;;;;;;;13.68;12.98;;;;;;;;;;5063934;28;20032;-66
2023/12/05 10:52:03;;;;;;;14.45;13.65;;;;;;;;;;5060743;28;20492;-69
2023/12/05 10:54:29;;;;;;;13.48;12.77;;;;;;;;;;5062681;28;20055;-67
2023/12/05 10:56:56;;;;;;;13.27;12.57;;;;;;;;;;5064501;28;20547;-67
2023/12/05 10:59:22;;;;;;;14.00;13.23;;;;;;;;;;5068140;28;20029;-67
2023/12/05 11:01:47;;;;;;;12.90;12.23;;;;;;;;;;5068594;28;20039;-67
2023/12/05 11:04:13;;;;;;;13.23;12.52;;;;;;;;;;5067411;28;20044;-67
2023/12/05 11:06:39;;;;;;;13.32;12.63;;;;;;;;;;5065732;28;20098;-66
2023/12/05 11:09:04;;;;;;;14.07;13.30;;;;;;;;;;5067892;28;20031;-65
2023/12/05 11:11:30;;;;;;;14.60;13.80;;;;;;;;;;5064192;28;20381;-66
2023/12/05 11:13:57;;;;;;;13.82;13.10;;;;;;;;;;5060531;28;20052;-64
2023/12/05 11:16:28;;;;;;;13.45;12.75;;;;;;;;;;5076106;28;20049;-64
2023/12/05 11:19:19;;;;;;;13.05;12.38;;;;;;;;;;5068542;28;20043;-66
2023/12/05 11:21:49;;;;;;;13.38;12.68;;;;;;;;;;5059665;28;20074;-65
2023/12/05 11:24:41;;;;;;;13.75;13.05;;;;;;;;;;5060487;28;20069;-67
2023/12/05 11:27:25;;;;;;;13.25;12.55;;;;;;;;;;5061011;28;20048;-67
2023/12/05 11:29:50;;;;;;;13.98;13.23;;;;;;;;;;5067304;28;20032;-67
2023/12/05 11:32:34;;;;;;;14.43;13.63;;;;;;;;;;5065779;28;20154;-66
2023/12/05 11:35:02;;;;;;;14.00;13.23;;;;;;;;;;5079830;28;20399;-68
2023/12/05 11:37:47;;;;;;;14.23;13.43;;;;;;;;;;5068245;28;20033;-69
2023/12/05 11:40:13;;;;;;;14.10;13.30;;;;;;;;;;5055244;28;20036;-68
2023/12/05 11:42:58;;;;;;;13.30;12.60;;;;;;;;;;5060228;28;20020;-67
2023/12/05 11:45:24;;;;;;;13.65;12.95;;;;;;;;;;5067020;28;20638;-68
2023/12/05 11:47:50;;;;;;;12.85;12.25;;;;;;;;;;5086086;28;20062;-67
2023/12/05 11:50:16;;;;;;;13.95;13.25;;;;;;;;;;5078184;28;20111;-67
2023/12/05 11:52:41;;;;;;;14.55;13.75;;;;;;;;;;5064601;28;20103;-68
2023/12/05 11:55:08;;;;;;;14.85;14.02;;;;;;;;;;5065964;28;20028;-69
2023/12/05 11:57:34;;;;;;;14.60;13.80;;;;;;;;;;5062144;28;20035;-66
2023/12/05 12:00:00;;;;;;;14.35;13.55;;;;;;;;;;5062251;28;20051;-67
2023/12/05 12:02:31;;;;;;;14.75;13.95;;;;;;;;;;5060221;28;20089;-67
2023/12/05 12:05:00;;;;;;;13.88;13.18;;;;;;;;;;5060730;28;20534;-67
2023/12/05 12:07:25;;;;;;;13.50;12.80;;;;;;;;;;5063112;28;20025;-68
2023/12/05 12:09:51;;;;;;;13.38;12.68;;;;;;;;;;5071201;28;20035;-71
2023/12/05 12:12:16;;;;;;;13.88;13.15;;;;;;;;;;5064234;28;20434;-68
2023/12/05 12:14:42;;;;;;;13.77;13.05;;;;;;;;;;5074542;28;20539;-67
2023/12/05 12:17:11;;;;;;;14.38;13.57;;;;;;;;;;5066518;28;20120;-67
2023/12/05 12:19:37;;;;;;;14.15;13.35;;;;;;;;;;5064153;28;20330;-66
2023/12/05 12:22:06;;;;;;;15.20;14.30;;;;;;;;;;5062038;28;20024;-69
2023/12/05 12:24:33;;;;;;;16.90;15.85;;;;;;;;;;5069610;28;20104;-67
2023/12/05 12:26:58;;;;;;;14.13;13.32;;;;;;;;;;5054387;28;20107;-69
2023/12/05 12:29:24;;;;;;;13.32;12.63;;;;;;;;;;5069504;28;20111;-67
2023/12/05 12:31:52;;;;;;;13.85;13.15;;;;;;;;;;5057498;28;20032;-66
2023/12/05 12:34:27;;;;;;;14.63;13.82;;;;;;;;;;5060195;28;20029;-68
2023/12/05 12:36:53;;;;;;;14.60;13.80;;;;;;;;;;5075842;28;20024;-68
2023/12/05 12:39:19;;;;;;;14.45;13.65;;;;;;;;;;5065403;28;20391;-69
2023/12/05 12:41:48;;;;;;;15.15;14.25;;;;;;;;;;5051592;28;20025;-67
2023/12/05 12:44:13;;;;;;;13.98;13.23;;;;;;;;;;5064203;28;20024;-68
2023/12/05 12:46:40;;;;;;;14.30;13.50;;;;;;;;;;5058506;28;20438;-68
2023/12/05 12:49:06;;;;;;;13.80;13.10;;;;;;;;;;5066145;28;20025;-67
2023/12/05 12:51:33;;;;;;;14.55;13.75;;;;;;;;;;5066584;28;20400;-65
2023/12/05 12:53:59;;;;;;;13.43;12.73;;;;;;;;;;5063359;28;20031;-66
2023/12/05 12:56:25;;;;;;;12.82;12.23;;;;;;;;;;5067640;28;20024;-66
2023/12/05 12:58:51;;;;;;;13.55;12.85;;;;;;;;;;5066993;28;20028;-67
2023/12/05 13:01:17;;;;;;;14.07;13.38;;;;;;;;;;5059773;28;20710;-67
2023/12/05 13:03:45;;;;;;;14.85;14.05;;;;;;;;;;5062163;28;20013;-64
2023/12/05 13:06:11;;;;;;;14.27;13.50;;;;;;;;;;5063647;28;20399;-68
2023/12/05 13:08:38;;;;;;;14.00;13.25;;;;;;;;;;5064620;28;20128;-68
2023/12/05 13:11:04;;;;;;;14.57;13.77;;;;;;;;;;5059591;28;20031;-65
2023/12/05 13:13:29;;;;;;;13.32;12.63;;;;;;;;;;5059090;28;20489;-65
2023/12/05 13:15:55;;;;;;;14.80;14.00;;;;;;;;;;5066618;28;20057;-67
2023/12/05 13:18:20;;;;;;;14.63;13.82;;;;;;;;;;5061189;28;20024;-68
2023/12/05 13:20:52;;;;;;;15.48;14.57;;;;;;;;;;5061811;28;20029;-67
2023/12/05 13:23:20;;;;;;;14.43;13.63;;;;;;;;;;5062415;28;20586;-65
2023/12/05 13:25:46;;;;;;;14.55;13.75;;;;;;;;;;5060183;28;20029;-66
2023/12/05 13:28:11;;;;;;;14.27;13.48;;;;;;;;;;5058996;28;20036;-65
2023/12/05 13:30:36;;;;;;;14.32;13.52;;;;;;;;;;5063076;28;20039;-68
2023/12/05 13:33:02;;;;;;;13.57;12.88;;;;;;;;;;5058753;28;20013;-67
2023/12/05 13:35:28;;;;;;;14.38;13.57;;;;;;;;;;5062987;28;20776;-66
2023/12/05 13:37:53;;;;;;;13.70;13.00;;;;;;;;;;5062417;28;20028;-67
2023/12/05 13:40:18;;;;;;;14.23;13.43;;;;;;;;;;5067460;28;20127;-67
2023/12/05 13:42:44;;;;;;;13.45;12.75;;;;;;;;;;5082693;28;20017;-65
2023/12/05 13:45:10;;;;;;;12.68;12.07;;;;;;;;;;5068010;28;20052;-67
2023/12/05 13:47:35;;;;;;;13.70;13.00;;;;;;;;;;5070088;28;20012;-66
2023/12/05 13:50:02;;;;;;;14.05;13.25;;;;;;;;;;5060577;28;20031;-66
2023/12/05 13:52:27;;;;;;;14.57;13.77;;;;;;;;;;5061226;28;20084;-67
2023/12/05 13:54:53;;;;;;;13.65;12.95;;;;;;;;;;5061983;28;20017;-65
2023/12/05 13:57:18;;;;;;;14.38;13.57;;;;;;;;;;5065903;28;20027;-68
2023/12/05 13:59:44;;;;;;;14.07;13.27;;;;;;;;;;5065359;28;20021;-66
2023/12/05 14:02:09;;;;;;;13.73;13.02;;;;;;;;;;5063665;28;20017;-66
2023/12/05 14:04:34;;;;;;;13.68;12.98;;;;;;;;;;5065311;28;20376;-66
2023/12/05 14:07:00;;;;;;;14.00;13.20;;;;;;;;;;5063587;28;20033;-66
2023/12/05 14:09:25;;;;;;;14.55;13.75;;;;;;;;;;5065759;28;20431;-65
2023/12/05 14:11:51;;;;;;;13.80;13.10;;;;;;;;;;5070255;28;20021;-66
2023/12/05 14:14:16;;;;;;;13.50;12.80;;;;;;;;;;5064112;28;20036;-65